createdAt,value
2022-10-23T00:02:06.795Z,100961.28
2022-10-23T00:05:15.750Z,100983.03
2022-10-23T00:08:27.203Z,100980.41
2022-10-23T00:11:40.882Z,100958.72
2022-10-23T00:14:49.259Z,100998.19
2022-10-23T00:17:57.756Z,101000.78
2022-10-23T00:21:15.680Z,100998.19
2022-10-23T00:24:24.141Z,101007.22
2022-10-23T00:27:32.754Z,101019.69
2022-10-23T00:30:41.116Z,101007.50
2022-10-23T00:33:49.791Z,101009.25
2022-10-23T00:36:58.215Z,101034.91
2022-10-23T00:40:06.741Z,101029.66
2022-10-23T00:43:30.720Z,101036.00
2022-10-23T00:46:32.830Z,101032.38
2022-10-23T00:49:50.720Z,101053.69
2022-10-23T00:53:02.057Z,101047.41
2022-10-23T00:56:17.743Z,101048.19
2022-10-23T00:59:19.384Z,101048.22
2022-10-23T01:02:33.813Z,101040.41
2022-10-23T01:09:15.704Z,101063.34
2022-10-23T01:12:43.737Z,101068.81
2022-10-23T01:16:03.706Z,101069.75
2022-10-23T01:19:33.687Z,101069.75
2022-10-23T01:23:00.787Z,101056.56
2022-10-23T01:26:32.704Z,101082.97
2022-10-23T01:29:46.020Z,101086.66
2022-10-23T01:33:04.689Z,101063.00
2022-10-23T01:36:12.318Z,101089.34
2022-10-23T01:39:39.707Z,101091.19
2022-10-23T01:42:52.746Z,101071.88
2022-10-23T01:46:07.732Z,101079.84
2022-10-23T01:49:17.720Z,101088.69
2022-10-23T01:52:32.689Z,101075.31
2022-10-23T01:55:43.987Z,101076.12
2022-10-23T01:59:00.680Z,101080.56
2022-10-23T02:02:04.613Z,101061.44
2022-10-23T02:05:28.873Z,101064.78
2022-10-23T02:08:37.517Z,101051.66
2022-10-23T02:12:01.705Z,101077.19
2022-10-23T02:15:22.673Z,101079.59
2022-10-23T02:18:46.742Z,101063.87
2022-10-23T02:22:12.733Z,101078.94
2022-10-23T02:25:26.728Z,101077.03
2022-10-23T02:28:49.703Z,101077.31
2022-10-23T02:31:51.383Z,101070.34
2022-10-23T02:35:05.768Z,101082.62
2022-10-23T02:38:27.532Z,101086.12
2022-10-23T02:42:08.702Z,101086.94
2022-10-23T02:45:35.766Z,101087.94
2022-10-23T02:49:14.720Z,101098.37
2022-10-23T02:52:48.031Z,101100.06
2022-10-23T02:56:34.514Z,101104.75
2022-10-23T02:59:44.726Z,101106.69
2022-10-23T03:03:05.128Z,101104.78
2022-10-23T03:06:07.670Z,101113.47
2022-10-23T03:09:22.756Z,101117.03
2022-10-23T03:12:30.783Z,101120.72
2022-10-23T03:15:39.327Z,101122.56
2022-10-23T03:18:47.738Z,101105.81
2022-10-23T03:21:56.300Z,101108.28
2022-10-23T03:25:13.904Z,101128.66
2022-10-23T03:28:23.328Z,101117.28
2022-10-23T03:31:31.750Z,101134.09
2022-10-23T03:34:46.736Z,101120.00
2022-10-23T03:37:48.410Z,101125.31
2022-10-23T03:41:02.715Z,101137.69
2022-10-23T03:44:10.797Z,101127.94
2022-10-23T03:47:26.737Z,101134.97
2022-10-23T03:50:34.742Z,101121.72
2022-10-23T03:53:43.284Z,101143.66
2022-10-23T03:56:55.015Z,101130.38
2022-10-23T04:00:08.137Z,101143.47
2022-10-23T04:03:15.795Z,101139.06
2022-10-23T04:06:24.583Z,101139.97
2022-10-23T04:09:39.746Z,101133.78
2022-10-23T04:12:47.744Z,101138.00
2022-10-23T04:16:02.834Z,101142.44
2022-10-23T04:19:04.391Z,101137.00
2022-10-23T04:22:18.746Z,101138.72
2022-10-23T04:25:26.782Z,101134.28
2022-10-23T04:28:38.110Z,101132.75
2022-10-23T04:31:52.743Z,101105.59
2022-10-23T04:35:07.772Z,101107.38
2022-10-23T04:38:09.413Z,101117.09
2022-10-23T04:41:23.767Z,101076.69
2022-10-23T04:44:25.340Z,101122.34
2022-10-23T04:47:40.054Z,101133.03
2022-10-23T04:50:58.844Z,101104.94
2022-10-23T04:54:13.728Z,101134.84
2022-10-23T04:57:15.372Z,101138.37
2022-10-23T05:00:30.831Z,101146.38
2022-10-23T05:03:38.811Z,101149.09
2022-10-23T05:06:47.272Z,101154.41
2022-10-23T05:09:55.753Z,101155.22
2022-10-23T05:13:10.794Z,101141.22
2022-10-23T05:16:33.770Z,101136.88
2022-10-23T05:19:52.812Z,101158.94
2022-10-23T05:22:56.427Z,101159.88
2022-10-23T05:26:11.760Z,101143.13
2022-10-23T05:29:20.586Z,101150.19
2022-10-23T05:32:30.756Z,101142.28
2022-10-23T05:35:41.835Z,101159.88
2022-10-23T05:38:56.773Z,101154.63
2022-10-23T05:42:11.771Z,101149.28
2022-10-23T05:45:13.367Z,101171.12
2022-10-23T05:48:34.607Z,101175.38
2022-10-23T05:51:57.022Z,101176.19
2022-10-23T05:55:12.096Z,101158.41
2022-10-23T05:58:13.723Z,101168.59
2022-10-23T06:01:29.007Z,101176.37
2022-10-23T06:04:39.070Z,101164.06
2022-10-23T06:07:46.843Z,101171.19
2022-10-23T06:10:55.296Z,101162.28
2022-10-23T06:14:07.763Z,101154.75
2022-10-23T06:17:22.819Z,101191.06
2022-10-23T06:20:30.868Z,101189.06
2022-10-23T06:23:41.043Z,101183.09
2022-10-23T06:26:56.792Z,101170.97
2022-10-23T06:29:58.521Z,101198.47
2022-10-23T06:33:12.831Z,101199.19
2022-10-23T06:36:28.862Z,101201.66
2022-10-23T06:39:43.788Z,101214.19
2022-10-23T06:42:51.783Z,101208.94
2022-10-23T06:46:07.812Z,101229.22
2022-10-23T06:49:09.448Z,101192.47
2022-10-23T06:52:45.992Z,101230.25
2022-10-23T06:55:55.957Z,101207.41
2022-10-23T07:02:33.970Z,101223.09
2022-10-23T07:05:42.852Z,101243.25
2022-10-23T07:08:57.779Z,101225.53
2022-10-23T07:11:59.327Z,101231.75
2022-10-23T07:15:14.801Z,101244.97
2022-10-23T07:18:16.841Z,101248.62
2022-10-23T07:21:37.797Z,101197.81
2022-10-23T07:24:39.576Z,101226.06
2022-10-23T07:27:53.799Z,101257.84
2022-10-23T07:30:58.287Z,101255.97
2022-10-23T07:34:13.078Z,101245.66
2022-10-23T07:37:17.657Z,101255.19
2022-10-23T07:40:33.847Z,101252.56
2022-10-23T07:43:41.796Z,101087.31
2022-10-23T07:47:07.828Z,101129.13
2022-10-23T07:50:29.626Z,101246.59
2022-10-23T07:53:38.480Z,101248.13
2022-10-23T07:56:46.815Z,101181.12
2022-10-23T07:59:55.903Z,101249.47
2022-10-23T08:03:05.144Z,101249.91
2022-10-23T08:06:33.682Z,101233.19
2022-10-23T08:09:49.050Z,101237.63
2022-10-23T08:12:50.943Z,101137.56
2022-10-23T08:16:05.795Z,101243.50
2022-10-23T08:19:14.819Z,101235.44
2022-10-23T08:22:23.320Z,101227.78
2022-10-23T08:28:47.821Z,101234.84
2022-10-23T08:31:49.578Z,101118.09
2022-10-23T08:35:03.795Z,101231.19
2022-10-23T08:38:12.867Z,101227.63
2022-10-23T08:41:53.775Z,101220.03
2022-10-23T08:45:18.860Z,101233.66
2022-10-23T08:48:54.940Z,101225.47
2022-10-23T08:52:15.774Z,101229.78
2022-10-23T08:55:37.048Z,101251.63
2022-10-23T08:59:33.808Z,101241.09
2022-10-23T09:02:46.225Z,101222.53
2022-10-23T09:06:13.869Z,101213.13
2022-10-23T09:09:47.001Z,101223.16
2022-10-23T09:13:11.867Z,101210.94
2022-10-23T09:16:54.812Z,101203.28
2022-10-23T09:20:24.818Z,101230.59
2022-10-23T09:23:26.494Z,101239.22
2022-10-23T09:26:40.914Z,101222.28
2022-10-23T09:30:08.089Z,101235.16
2022-10-23T09:33:36.584Z,101229.31
2022-10-23T09:36:57.751Z,101233.41
2022-10-23T09:40:28.111Z,101248.16
2022-10-23T09:43:41.986Z,101248.75
2022-10-23T09:47:00.864Z,101250.69
2022-10-23T09:50:02.855Z,101236.63
2022-10-23T09:53:46.912Z,101251.31
2022-10-23T09:57:03.915Z,101258.47
2022-10-23T10:00:18.806Z,101230.88
2022-10-23T10:03:36.947Z,101249.16
2022-10-23T10:06:57.474Z,101238.91
2022-10-23T10:10:06.144Z,101229.41
2022-10-23T10:13:34.184Z,101226.63
2022-10-23T10:16:56.859Z,101235.31
2022-10-23T10:20:29.837Z,101228.47
2022-10-23T10:23:46.664Z,101223.59
2022-10-23T10:27:30.878Z,101214.09
2022-10-23T10:30:57.631Z,101203.19
2022-10-23T10:34:22.904Z,101210.47
2022-10-23T10:37:50.906Z,101191.31
2022-10-23T10:41:25.916Z,101196.97
2022-10-23T10:45:07.845Z,101202.47
2022-10-23T10:48:53.928Z,101201.91
2022-10-23T10:52:37.836Z,101194.91
2022-10-23T10:56:11.822Z,101181.28
2022-10-23T10:59:33.840Z,101185.00
2022-10-23T11:02:57.816Z,101175.69
2022-10-23T11:06:22.922Z,101149.37
2022-10-23T11:09:43.033Z,101148.94
2022-10-23T11:12:52.850Z,101144.06
2022-10-23T11:16:08.816Z,101151.22
2022-10-23T11:19:53.991Z,101138.84
2022-10-23T11:23:18.427Z,101136.81
2022-10-23T11:27:07.900Z,101152.22
2022-10-23T11:30:41.876Z,101131.34
2022-10-23T11:34:10.859Z,101086.88
2022-10-23T11:37:37.943Z,101140.88
2022-10-23T11:41:33.155Z,101148.81
2022-10-23T11:44:56.772Z,101041.94
2022-10-23T11:48:37.199Z,101139.88
2022-10-23T11:51:46.970Z,101155.00
2022-10-23T11:55:22.915Z,101144.50
2022-10-23T11:59:06.136Z,101140.62
2022-10-23T12:02:35.400Z,101025.28
2022-10-23T12:09:28.937Z,101130.03
2022-10-23T12:12:38.780Z,101118.13
2022-10-23T12:16:00.988Z,101127.69
2022-10-23T12:19:22.442Z,101121.16
2022-10-23T12:23:01.124Z,101095.56
2022-10-23T12:26:42.004Z,101027.78
2022-10-23T12:30:11.090Z,101100.16
2022-10-23T12:33:39.911Z,101094.81
2022-10-23T12:37:14.006Z,101097.53
2022-10-23T12:40:35.891Z,101099.03
2022-10-23T12:44:01.958Z,101091.44
2022-10-23T12:47:23.916Z,101075.31
2022-10-23T12:50:29.768Z,101086.22
2022-10-23T12:53:44.947Z,101083.59
2022-10-23T12:56:47.464Z,101059.50
2022-10-23T13:00:06.944Z,101065.56
2022-10-23T13:03:17.960Z,101062.06
2022-10-23T13:06:50.661Z,100883.09
2022-10-23T13:09:53.547Z,101070.19
2022-10-23T13:13:13.104Z,101063.94
2022-10-23T13:16:17.548Z,101056.09
2022-10-23T13:19:32.895Z,101053.09
2022-10-23T13:22:34.607Z,101054.78
2022-10-23T13:25:48.919Z,101044.63
2022-10-23T13:28:57.941Z,101043.28
2022-10-23T13:32:11.495Z,101041.56
2022-10-23T13:35:28.919Z,101027.88
2022-10-23T13:38:39.278Z,101030.72
2022-10-23T13:41:50.961Z,101023.97
2022-10-23T13:45:05.899Z,101019.38
2022-10-23T13:48:14.613Z,101025.19
2022-10-23T13:51:29.083Z,100997.59
2022-10-23T13:54:37.656Z,101013.31
2022-10-23T13:57:46.146Z,101024.41
2022-10-23T14:01:01.054Z,101015.47
2022-10-23T14:04:05.382Z,101016.84
2022-10-23T14:07:19.902Z,100999.59
2022-10-23T14:10:24.533Z,100998.53
2022-10-23T14:13:44.980Z,101003.63
2022-10-23T14:16:59.975Z,100993.16
2022-10-23T14:20:19.001Z,100998.19
2022-10-23T14:23:28.170Z,100991.22
2022-10-23T14:26:37.703Z,100988.78
2022-10-23T14:29:46.920Z,100972.28
2022-10-23T14:33:01.899Z,100977.47
2022-10-23T14:39:28.718Z,100988.03
2022-10-23T14:42:36.979Z,100974.91
2022-10-23T14:45:52.312Z,100978.31
2022-10-23T14:49:09.779Z,100966.75
2022-10-23T14:52:17.951Z,100966.75
2022-10-23T14:55:28.087Z,100957.94
2022-10-23T14:58:37.224Z,100946.44
2022-10-23T15:01:48.221Z,100945.69
2022-10-23T15:05:09.928Z,100958.91
2022-10-23T15:08:25.948Z,100943.25
2022-10-23T15:11:35.096Z,100955.44
2022-10-23T15:14:43.935Z,100951.87
2022-10-23T15:17:52.684Z,100950.06
2022-10-23T15:21:00.972Z,100932.34
2022-10-23T15:24:09.868Z,100912.97
2022-10-23T15:27:19.196Z,100910.88
2022-10-23T15:30:28.311Z,100904.69
2022-10-23T15:33:37.927Z,100911.81
2022-10-23T15:36:47.527Z,100929.66
2022-10-23T15:39:58.365Z,100917.63
2022-10-23T15:43:23.947Z,100936.06
2022-10-23T15:46:26.635Z,100924.75
2022-10-23T15:49:42.009Z,100915.00
2022-10-23T15:52:44.762Z,100909.16
2022-10-23T15:56:11.205Z,100930.28
2022-10-23T15:59:13.705Z,100932.09
2022-10-23T16:02:28.040Z,100944.47
2022-10-23T16:05:30.271Z,100939.97
2022-10-23T16:08:46.086Z,100925.09
2022-10-23T16:11:54.935Z,100926.03
2022-10-23T16:15:13.917Z,100954.25
2022-10-23T16:18:21.930Z,100946.25
2022-10-23T16:21:33.855Z,100950.00
2022-10-23T16:24:41.928Z,100953.34
2022-10-23T16:27:58.986Z,100944.63
2022-10-23T16:31:02.303Z,100965.63
2022-10-23T16:34:17.965Z,100975.63
2022-10-23T16:37:26.983Z,100990.84
2022-10-23T16:40:48.935Z,100988.22
2022-10-23T16:44:05.979Z,100987.22
2022-10-23T16:47:40.959Z,100975.38
2022-10-23T16:50:43.200Z,100974.56
2022-10-23T16:54:00.011Z,100976.13
2022-10-23T16:57:08.968Z,100965.87
2022-10-23T17:00:24.942Z,100970.13
2022-10-23T17:03:33.934Z,100988.72
2022-10-23T17:06:42.713Z,100981.84
2022-10-23T17:09:52.003Z,101000.44
2022-10-23T17:13:06.987Z,101003.94
2022-10-23T17:16:13.523Z,100993.47
2022-10-23T17:19:44.614Z,101007.69
2022-10-23T17:22:54.989Z,100997.25
2022-10-23T17:26:07.022Z,100997.94
2022-10-23T17:29:18.247Z,101001.56
2022-10-23T17:32:34.188Z,100980.34
2022-10-23T17:35:43.008Z,100984.66
2022-10-23T17:39:20.992Z,100981.16
2022-10-23T17:42:43.454Z,100980.28
2022-10-23T17:45:45.984Z,100982.25
2022-10-23T17:49:03.975Z,100989.47
2022-10-23T17:52:13.230Z,100965.56
2022-10-23T17:55:28.946Z,100971.81
2022-10-23T17:58:32.661Z,100958.59
2022-10-23T18:01:48.560Z,100959.69
2022-10-23T18:04:57.988Z,100926.69
2022-10-23T18:08:12.978Z,100961.59
2022-10-23T18:11:25.975Z,100961.72
2022-10-23T18:14:42.964Z,100973.50
2022-10-23T18:17:45.221Z,100955.06
2022-10-23T18:21:00.044Z,100940.25
2022-10-23T18:24:10.173Z,100964.84
2022-10-23T18:27:25.043Z,100976.53
2022-10-23T18:30:27.713Z,100969.69
2022-10-23T18:33:42.112Z,100964.34
2022-10-23T18:36:51.030Z,100973.13
2022-10-23T18:40:02.947Z,100974.72
2022-10-23T18:43:42.742Z,100978.28
2022-10-23T18:46:52.108Z,100960.44
2022-10-23T18:50:01.048Z,100940.97
2022-10-23T18:53:16.991Z,100960.44
2022-10-23T18:56:22.645Z,100960.38
2022-10-23T18:59:45.304Z,100957.81
2022-10-23T19:02:53.985Z,100961.41
2022-10-23T19:06:13.998Z,100965.97
2022-10-23T19:09:29.099Z,100966.84
2022-10-23T19:13:01.991Z,100951.03
2022-10-23T19:16:07.076Z,100956.06
2022-10-23T19:19:28.045Z,100932.50
2022-10-23T19:22:31.820Z,100960.66
2022-10-23T19:25:47.049Z,100969.63
2022-10-23T19:28:49.186Z,100955.69
2022-10-23T19:32:05.001Z,100966.19
2022-10-23T19:35:07.792Z,100955.53
2022-10-23T19:38:22.068Z,100963.53
2022-10-23T19:41:24.320Z,100946.22
2022-10-23T19:44:59.240Z,100960.91
2022-10-23T19:48:08.223Z,100953.88
2022-10-23T19:51:18.274Z,100964.59
2022-10-23T19:54:28.040Z,100959.31
2022-10-23T19:57:38.234Z,100952.28
2022-10-23T20:00:47.076Z,100968.47
2022-10-23T20:04:03.214Z,100961.41
2022-10-23T20:07:23.076Z,100888.37
2022-10-23T20:10:38.163Z,100974.16
2022-10-23T20:13:48.060Z,100974.06
2022-10-23T20:16:57.158Z,100982.97
2022-10-23T20:20:07.302Z,100981.06
2022-10-23T20:23:35.480Z,100974.94
2022-10-23T20:26:49.035Z,100966.50
2022-10-23T20:30:04.039Z,100969.09
2022-10-23T20:33:06.289Z,100966.56
2022-10-23T20:36:37.953Z,100971.19
2022-10-23T20:39:48.055Z,100970.38
2022-10-23T20:43:10.082Z,100958.94
2022-10-23T20:46:26.145Z,100953.09
2022-10-23T20:49:35.184Z,100952.06
2022-10-23T20:52:43.036Z,100944.91
2022-10-23T20:55:58.287Z,100931.44
2022-10-23T20:59:10.282Z,100936.53
2022-10-23T21:02:18.881Z,100928.50
2022-10-23T21:05:27.044Z,100932.00
2022-10-23T21:08:35.990Z,100923.06
2022-10-23T21:11:44.088Z,100928.31
2022-10-23T21:15:00.033Z,100932.81
2022-10-23T21:18:19.343Z,100914.28
2022-10-23T21:21:38.044Z,100931.13
2022-10-23T21:24:46.758Z,100922.19
2022-10-23T21:28:01.047Z,100912.03
2022-10-23T21:31:17.250Z,100927.03
2022-10-23T21:34:33.059Z,100925.06
2022-10-23T21:37:35.237Z,100929.31
2022-10-23T21:40:50.232Z,100928.44
2022-10-23T21:44:05.943Z,100918.81
2022-10-23T21:47:14.052Z,100928.66
2022-10-23T21:50:22.571Z,100935.06
2022-10-23T21:53:31.047Z,100940.41
2022-10-23T21:56:47.319Z,100943.91
2022-10-23T21:59:55.068Z,100927.78
2022-10-23T22:03:03.527Z,100923.31
2022-10-23T22:06:12.062Z,100920.56
2022-10-23T22:09:28.100Z,100909.09
2022-10-23T22:12:36.264Z,100916.94
2022-10-23T22:19:04.056Z,100900.81
2022-10-23T22:22:06.526Z,100916.62
2022-10-23T22:25:21.123Z,100929.84
2022-10-23T22:28:36.047Z,100920.78
2022-10-23T22:31:39.148Z,100916.38
2022-10-23T22:34:54.074Z,100923.53
2022-10-23T22:37:55.671Z,100929.75
2022-10-23T22:41:11.105Z,100920.06
2022-10-23T22:44:26.088Z,100916.69
2022-10-23T22:47:34.687Z,100929.84
2022-10-23T22:50:43.086Z,100930.88
2022-10-23T22:53:51.809Z,100916.09
2022-10-23T22:57:00.148Z,100925.19
2022-10-23T23:00:15.142Z,100917.44
2022-10-23T23:03:23.129Z,100917.91
2022-10-23T23:06:40.072Z,100914.75
2022-10-23T23:09:43.893Z,100888.00
2022-10-23T23:12:58.080Z,100896.88
2022-10-23T23:16:00.228Z,100904.94
2022-10-23T23:19:18.067Z,100901.34
2022-10-23T23:22:19.715Z,100897.94
2022-10-23T23:25:35.079Z,100905.91
2022-10-23T23:28:36.912Z,100868.38
2022-10-23T23:31:51.103Z,100907.66
2022-10-23T23:34:59.098Z,100908.50
2022-10-23T23:38:07.880Z,100892.59
2022-10-23T23:41:20.107Z,100900.28
2022-10-23T23:44:50.398Z,100885.09
2022-10-23T23:48:17.080Z,100899.16
2022-10-23T23:51:24.200Z,100892.22
2022-10-23T23:54:39.105Z,100893.19
2022-10-23T23:57:40.723Z,100891.41
